sensor_id;sensor_type;location;lat;lon;timestamp;temperature;humidity
3866;DHT22;1948;53.250;10.412;2024-03-08T00:00:24;3.60;99.90
3866;DHT22;1948;53.250;10.412;2024-03-08T00:02:54;3.60;99.90
3866;DHT22;1948;53.250;10.412;2024-03-08T00:05:21;3.50;99.90
3866;DHT22;1948;53.250;10.412;2024-03-08T00:07:49;3.50;99.90
3866;DHT22;1948;53.250;10.412;2024-03-08T00:10:16;3.40;99.90
3866;DHT22;1948;53.250;10.412;2024-03-08T00:12:44;3.40;99.90
3866;DHT22;1948;53.250;10.412;2024-03-08T00:15:16;3.40;99.90
3866;DHT22;1948;53.250;10.412;2024-03-08T00:17:45;3.30;99.90
3866;DHT22;1948;53.250;10.412;2024-03-08T00:20:16;3.30;99.90
3866;DHT22;1948;53.250;10.412;2024-03-08T00:22:45;3.30;99.90
3866;DHT22;1948;53.250;10.412;2024-03-08T00:25:17;3.20;99.90
3866;DHT22;1948;53.250;10.412;2024-03-08T00:27:45;3.20;99.90
3866;DHT22;1948;53.250;10.412;2024-03-08T00:30:14;3.20;99.90
3866;DHT22;1948;53.250;10.412;2024-03-08T00:32:43;3.20;99.90
3866;DHT22;1948;53.250;10.412;2024-03-08T00:35:13;3.10;99.90
3866;DHT22;1948;53.250;10.412;2024-03-08T00:37:40;3.10;99.90
3866;DHT22;1948;53.250;10.412;2024-03-08T00:40:13;3.10;99.90
3866;DHT22;1948;53.250;10.412;2024-03-08T00:42:40;3.10;99.90
3866;DHT22;1948;53.250;10.412;2024-03-08T00:45:11;3.10;99.90
3866;DHT22;1948;53.250;10.412;2024-03-08T00:47:39;3.00;99.90
3866;DHT22;1948;53.250;10.412;2024-03-08T00:50:06;3.00;99.90
3866;DHT22;1948;53.250;10.412;2024-03-08T00:52:34;3.00;99.90
3866;DHT22;1948;53.250;10.412;2024-03-08T00:55:01;3.00;99.90
3866;DHT22;1948;53.250;10.412;2024-03-08T00:57:31;2.90;99.90
3866;DHT22;1948;53.250;10.412;2024-03-08T00:59:59;2.90;99.90
3866;DHT22;1948;53.250;10.412;2024-03-08T01:02:26;2.90;99.90
3866;DHT22;1948;53.250;10.412;2024-03-08T01:04:53;2.80;99.90
3866;DHT22;1948;53.250;10.412;2024-03-08T01:07:20;2.80;99.90
3866;DHT22;1948;53.250;10.412;2024-03-08T01:09:48;2.80;99.90
3866;DHT22;1948;53.250;10.412;2024-03-08T01:12:15;2.80;99.90
3866;DHT22;1948;53.250;10.412;2024-03-08T01:14:43;2.80;99.90
3866;DHT22;1948;53.250;10.412;2024-03-08T01:17:10;2.70;99.90
3866;DHT22;1948;53.250;10.412;2024-03-08T01:19:38;2.70;99.90
3866;DHT22;1948;53.250;10.412;2024-03-08T01:22:05;2.80;99.90
3866;DHT22;1948;53.250;10.412;2024-03-08T01:24:32;2.80;99.90
3866;DHT22;1948;53.250;10.412;2024-03-08T01:27:03;2.70;99.90
3866;DHT22;1948;53.250;10.412;2024-03-08T01:29:30;2.70;99.90
3866;DHT22;1948;53.250;10.412;2024-03-08T01:31:57;2.70;99.90
3866;DHT22;1948;53.250;10.412;2024-03-08T01:34:28;2.70;99.90
3866;DHT22;1948;53.250;10.412;2024-03-08T01:36:55;2.60;99.90
3866;DHT22;1948;53.250;10.412;2024-03-08T01:39:23;2.60;99.90
3866;DHT22;1948;53.250;10.412;2024-03-08T01:41:52;2.60;99.90
3866;DHT22;1948;53.250;10.412;2024-03-08T01:44:25;2.60;99.90
3866;DHT22;1948;53.250;10.412;2024-03-08T01:46:55;2.60;99.90
3866;DHT22;1948;53.250;10.412;2024-03-08T01:49:24;2.60;99.90
3866;DHT22;1948;53.250;10.412;2024-03-08T01:51:52;2.60;99.90
3866;DHT22;1948;53.250;10.412;2024-03-08T01:54:23;2.50;99.90
3866;DHT22;1948;53.250;10.412;2024-03-08T01:56:53;2.50;99.90
3866;DHT22;1948;53.250;10.412;2024-03-08T01:59:20;2.50;99.90
3866;DHT22;1948;53.250;10.412;2024-03-08T02:01:47;2.40;99.90
3866;DHT22;1948;53.250;10.412;2024-03-08T02:04:19;2.40;99.90
3866;DHT22;1948;53.250;10.412;2024-03-08T02:06:47;2.40;99.90
3866;DHT22;1948;53.250;10.412;2024-03-08T02:09:15;2.40;99.90
3866;DHT22;1948;53.250;10.412;2024-03-08T02:11:47;2.40;99.90
3866;DHT22;1948;53.250;10.412;2024-03-08T02:14:14;2.40;99.90
3866;DHT22;1948;53.250;10.412;2024-03-08T02:16:46;2.30;99.90
3866;DHT22;1948;53.250;10.412;2024-03-08T02:19:16;2.30;99.90
3866;DHT22;1948;53.250;10.412;2024-03-08T02:21:43;2.30;99.90
3866;DHT22;1948;53.250;10.412;2024-03-08T02:24:13;2.30;99.90
3866;DHT22;1948;53.250;10.412;2024-03-08T02:26:45;2.30;99.90
3866;DHT22;1948;53.250;10.412;2024-03-08T02:29:17;2.20;99.90
3866;DHT22;1948;53.250;10.412;2024-03-08T02:31:48;2.20;99.90
3866;DHT22;1948;53.250;10.412;2024-03-08T02:34:20;2.20;99.90
3866;DHT22;1948;53.250;10.412;2024-03-08T02:36:47;2.20;99.90
3866;DHT22;1948;53.250;10.412;2024-03-08T02:39:18;2.20;99.90
3866;DHT22;1948;53.250;10.412;2024-03-08T02:41:46;2.10;99.90
3866;DHT22;1948;53.250;10.412;2024-03-08T02:44:13;2.10;99.90
3866;DHT22;1948;53.250;10.412;2024-03-08T02:46:43;2.10;99.90
3866;DHT22;1948;53.250;10.412;2024-03-08T02:49:13;2.10;99.90
3866;DHT22;1948;53.250;10.412;2024-03-08T02:51:42;2.10;99.90
3866;DHT22;1948;53.250;10.412;2024-03-08T02:54:12;2.00;99.90
3866;DHT22;1948;53.250;10.412;2024-03-08T02:56:39;2.00;99.90
3866;DHT22;1948;53.250;10.412;2024-03-08T02:59:09;2.00;99.90
3866;DHT22;1948;53.250;10.412;2024-03-08T03:01:38;2.00;99.90
3866;DHT22;1948;53.250;10.412;2024-03-08T03:04:05;2.00;99.90
3866;DHT22;1948;53.250;10.412;2024-03-08T03:06:32;2.00;99.90
3866;DHT22;1948;53.250;10.412;2024-03-08T03:09:00;2.00;99.90
3866;DHT22;1948;53.250;10.412;2024-03-08T03:11:35;2.00;99.90
3866;DHT22;1948;53.250;10.412;2024-03-08T03:14:02;1.90;99.90
3866;DHT22;1948;53.250;10.412;2024-03-08T03:16:29;1.90;99.90
3866;DHT22;1948;53.250;10.412;2024-03-08T03:18:56;1.90;99.90
3866;DHT22;1948;53.250;10.412;2024-03-08T03:21:28;1.90;99.90
3866;DHT22;1948;53.250;10.412;2024-03-08T03:23:58;1.90;99.90
3866;DHT22;1948;53.250;10.412;2024-03-08T03:26:26;1.90;99.90
3866;DHT22;1948;53.250;10.412;2024-03-08T03:28:53;1.90;99.90
3866;DHT22;1948;53.250;10.412;2024-03-08T03:31:20;1.80;99.90
3866;DHT22;1948;53.250;10.412;2024-03-08T03:33:50;1.80;99.90
3866;DHT22;1948;53.250;10.412;2024-03-08T03:36:20;1.80;99.90
3866;DHT22;1948;53.250;10.412;2024-03-08T03:38:48;1.70;99.90
3866;DHT22;1948;53.250;10.412;2024-03-08T03:41:18;1.70;99.90
3866;DHT22;1948;53.250;10.412;2024-03-08T03:43:45;1.80;99.90
3866;DHT22;1948;53.250;10.412;2024-03-08T03:46:12;1.80;99.90
3866;DHT22;1948;53.250;10.412;2024-03-08T03:48:41;1.80;99.90
3866;DHT22;1948;53.250;10.412;2024-03-08T03:51:10;1.80;99.90
3866;DHT22;1948;53.250;10.412;2024-03-08T03:53:39;1.80;99.90
3866;DHT22;1948;53.250;10.412;2024-03-08T03:56:13;1.80;99.90
3866;DHT22;1948;53.250;10.412;2024-03-08T03:58:40;1.80;99.90
3866;DHT22;1948;53.250;10.412;2024-03-08T04:01:07;1.70;99.90
3866;DHT22;1948;53.250;10.412;2024-03-08T04:03:36;1.70;99.90
3866;DHT22;1948;53.250;10.412;2024-03-08T04:06:08;1.60;99.90
3866;DHT22;1948;53.250;10.412;2024-03-08T04:08:37;1.60;99.90
3866;DHT22;1948;53.250;10.412;2024-03-08T04:11:09;1.60;99.90
3866;DHT22;1948;53.250;10.412;2024-03-08T04:13:36;1.60;99.90
3866;DHT22;1948;53.250;10.412;2024-03-08T04:16:06;1.60;99.90
3866;DHT22;1948;53.250;10.412;2024-03-08T04:18:38;1.60;99.90
3866;DHT22;1948;53.250;10.412;2024-03-08T04:21:05;1.60;99.90
3866;DHT22;1948;53.250;10.412;2024-03-08T04:23:34;1.60;99.90
3866;DHT22;1948;53.250;10.412;2024-03-08T04:26:04;1.60;99.90
3866;DHT22;1948;53.250;10.412;2024-03-08T04:28:35;1.50;99.90
3866;DHT22;1948;53.250;10.412;2024-03-08T04:31:06;1.50;99.90
3866;DHT22;1948;53.250;10.412;2024-03-08T04:33:33;1.50;99.90
3866;DHT22;1948;53.250;10.412;2024-03-08T04:36:03;1.50;99.90
3866;DHT22;1948;53.250;10.412;2024-03-08T04:38:31;1.50;99.90
3866;DHT22;1948;53.250;10.412;2024-03-08T04:40:58;1.50;99.90
3866;DHT22;1948;53.250;10.412;2024-03-08T04:43:26;1.50;99.90
3866;DHT22;1948;53.250;10.412;2024-03-08T04:45:55;1.50;99.90
3866;DHT22;1948;53.250;10.412;2024-03-08T04:48:22;1.50;99.90
3866;DHT22;1948;53.250;10.412;2024-03-08T04:50:49;1.50;99.90
3866;DHT22;1948;53.250;10.412;2024-03-08T04:53:16;1.50;99.90
3866;DHT22;1948;53.250;10.412;2024-03-08T04:55:44;1.50;99.90
3866;DHT22;1948;53.250;10.412;2024-03-08T04:58:11;1.50;99.90
3866;DHT22;1948;53.250;10.412;2024-03-08T05:00:38;1.50;99.90
3866;DHT22;1948;53.250;10.412;2024-03-08T05:03:10;1.50;99.90
3866;DHT22;1948;53.250;10.412;2024-03-08T05:05:38;1.40;99.90
3866;DHT22;1948;53.250;10.412;2024-03-08T05:08:05;1.40;99.90
3866;DHT22;1948;53.250;10.412;2024-03-08T05:10:32;1.40;99.90
3866;DHT22;1948;53.250;10.412;2024-03-08T05:12:59;1.30;99.90
3866;DHT22;1948;53.250;10.412;2024-03-08T05:15:31;1.30;99.90
3866;DHT22;1948;53.250;10.412;2024-03-08T05:18:01;1.30;99.90
3866;DHT22;1948;53.250;10.412;2024-03-08T05:20:29;1.30;99.90
3866;DHT22;1948;53.250;10.412;2024-03-08T05:22:58;1.30;99.90
3866;DHT22;1948;53.250;10.412;2024-03-08T05:25:26;1.30;99.90
3866;DHT22;1948;53.250;10.412;2024-03-08T05:27:59;1.30;99.90
3866;DHT22;1948;53.250;10.412;2024-03-08T05:30:26;1.20;99.90
3866;DHT22;1948;53.250;10.412;2024-03-08T05:32:53;1.20;99.90
3866;DHT22;1948;53.250;10.412;2024-03-08T05:35:23;1.30;99.90
3866;DHT22;1948;53.250;10.412;2024-03-08T05:37:51;1.30;99.90
3866;DHT22;1948;53.250;10.412;2024-03-08T05:40:18;1.30;99.90
3866;DHT22;1948;53.250;10.412;2024-03-08T05:42:48;1.30;99.90
3866;DHT22;1948;53.250;10.412;2024-03-08T05:45:18;1.30;99.90
3866;DHT22;1948;53.250;10.412;2024-03-08T05:47:45;1.30;99.90
3866;DHT22;1948;53.250;10.412;2024-03-08T05:50:12;1.30;99.90
3866;DHT22;1948;53.250;10.412;2024-03-08T05:52:42;1.40;99.90
3866;DHT22;1948;53.250;10.412;2024-03-08T05:55:10;1.40;99.90
3866;DHT22;1948;53.250;10.412;2024-03-08T05:57:37;1.40;99.90
3866;DHT22;1948;53.250;10.412;2024-03-08T06:00:07;1.40;99.90
3866;DHT22;1948;53.250;10.412;2024-03-08T06:02:40;1.50;99.90
3866;DHT22;1948;53.250;10.412;2024-03-08T06:05:11;1.50;99.90
3866;DHT22;1948;53.250;10.412;2024-03-08T06:07:38;1.50;99.90
3866;DHT22;1948;53.250;10.412;2024-03-08T06:10:11;1.50;99.90
3866;DHT22;1948;53.250;10.412;2024-03-08T06:12:43;1.60;99.90
3866;DHT22;1948;53.250;10.412;2024-03-08T06:15:13;1.70;99.90
3866;DHT22;1948;53.250;10.412;2024-03-08T06:17:42;1.80;99.90
3866;DHT22;1948;53.250;10.412;2024-03-08T06:20:10;2.00;99.90
3866;DHT22;1948;53.250;10.412;2024-03-08T06:22:39;2.00;99.90
3866;DHT22;1948;53.250;10.412;2024-03-08T06:25:11;2.20;99.90
3866;DHT22;1948;53.250;10.412;2024-03-08T06:27:42;2.40;99.90
3866;DHT22;1948;53.250;10.412;2024-03-08T06:30:11;2.50;99.90
3866;DHT22;1948;53.250;10.412;2024-03-08T06:32:39;2.70;99.90
3866;DHT22;1948;53.250;10.412;2024-03-08T06:35:06;2.90;99.90
3866;DHT22;1948;53.250;10.412;2024-03-08T06:37:34;3.10;99.90
3866;DHT22;1948;53.250;10.412;2024-03-08T06:40:04;3.30;99.90
3866;DHT22;1948;53.250;10.412;2024-03-08T06:42:31;3.60;99.90
3866;DHT22;1948;53.250;10.412;2024-03-08T06:45:02;3.80;99.90
3866;DHT22;1948;53.250;10.412;2024-03-08T06:47:32;4.10;99.90
3866;DHT22;1948;53.250;10.412;2024-03-08T06:50:02;4.30;99.90
3866;DHT22;1948;53.250;10.412;2024-03-08T06:52:30;4.70;99.90
3866;DHT22;1948;53.250;10.412;2024-03-08T06:54:57;5.10;99.90
3866;DHT22;1948;53.250;10.412;2024-03-08T06:57:27;5.40;99.90
3866;DHT22;1948;53.250;10.412;2024-03-08T06:59:56;5.70;99.90
3866;DHT22;1948;53.250;10.412;2024-03-08T07:02:23;5.90;99.90
3866;DHT22;1948;53.250;10.412;2024-03-08T07:04:54;6.40;99.90
3866;DHT22;1948;53.250;10.412;2024-03-08T07:07:21;6.80;99.90
3866;DHT22;1948;53.250;10.412;2024-03-08T07:09:53;7.10;99.90
3866;DHT22;1948;53.250;10.412;2024-03-08T07:12:21;7.30;99.90
3866;DHT22;1948;53.250;10.412;2024-03-08T07:14:49;7.60;99.90
3866;DHT22;1948;53.250;10.412;2024-03-08T07:17:16;7.80;99.90
3866;DHT22;1948;53.250;10.412;2024-03-08T07:19:48;8.10;99.90
3866;DHT22;1948;53.250;10.412;2024-03-08T07:22:15;8.70;99.90
3866;DHT22;1948;53.250;10.412;2024-03-08T07:24:45;9.10;99.90
3866;DHT22;1948;53.250;10.412;2024-03-08T07:27:31;9.40;99.90
3866;DHT22;1948;53.250;10.412;2024-03-08T07:29:58;9.70;99.90
3866;DHT22;1948;53.250;10.412;2024-03-08T07:32:31;10.10;99.90
3866;DHT22;1948;53.250;10.412;2024-03-08T07:35:04;10.50;99.90
3866;DHT22;1948;53.250;10.412;2024-03-08T07:37:31;10.80;99.90
3866;DHT22;1948;53.250;10.412;2024-03-08T07:40:01;10.90;99.90
3866;DHT22;1948;53.250;10.412;2024-03-08T07:42:28;11.20;99.90
3866;DHT22;1948;53.250;10.412;2024-03-08T07:44:55;11.50;99.90
3866;DHT22;1948;53.250;10.412;2024-03-08T07:47:25;12.00;99.90
3866;DHT22;1948;53.250;10.412;2024-03-08T07:49:56;11.90;99.90
3866;DHT22;1948;53.250;10.412;2024-03-08T07:52:27;12.00;99.90
3866;DHT22;1948;53.250;10.412;2024-03-08T07:54:54;12.00;99.90
3866;DHT22;1948;53.250;10.412;2024-03-08T07:57:24;12.30;99.90
3866;DHT22;1948;53.250;10.412;2024-03-08T07:59:56;12.30;99.90
3866;DHT22;1948;53.250;10.412;2024-03-08T08:02:23;12.20;99.90
3866;DHT22;1948;53.250;10.412;2024-03-08T08:04:52;12.40;99.90
3866;DHT22;1948;53.250;10.412;2024-03-08T08:07:26;12.70;99.90
3866;DHT22;1948;53.250;10.412;2024-03-08T08:09:54;13.20;99.90
3866;DHT22;1948;53.250;10.412;2024-03-08T08:12:23;13.30;99.90
3866;DHT22;1948;53.250;10.412;2024-03-08T08:14:50;13.40;99.90
3866;DHT22;1948;53.250;10.412;2024-03-08T08:17:17;13.30;99.90
3866;DHT22;1948;53.250;10.412;2024-03-08T08:19:49;13.10;99.90
3866;DHT22;1948;53.250;10.412;2024-03-08T08:22:18;13.50;99.90
3866;DHT22;1948;53.250;10.412;2024-03-08T08:24:50;13.60;99.90
3866;DHT22;1948;53.250;10.412;2024-03-08T08:27:22;13.90;99.90
3866;DHT22;1948;53.250;10.412;2024-03-08T08:29:52;14.60;99.90
3866;DHT22;1948;53.250;10.412;2024-03-08T08:32:18;14.90;99.90
3866;DHT22;1948;53.250;10.412;2024-03-08T08:34:48;15.10;99.90
3866;DHT22;1948;53.250;10.412;2024-03-08T08:37:15;15.20;99.90
3866;DHT22;1948;53.250;10.412;2024-03-08T08:39:46;15.50;99.90
3866;DHT22;1948;53.250;10.412;2024-03-08T08:42:17;15.70;99.90
3866;DHT22;1948;53.250;10.412;2024-03-08T08:44:44;16.20;99.30
3866;DHT22;1948;53.250;10.412;2024-03-08T08:47:12;16.70;99.10
3866;DHT22;1948;53.250;10.412;2024-03-08T08:49:44;17.10;98.00
3866;DHT22;1948;53.250;10.412;2024-03-08T08:52:13;17.60;96.60
3866;DHT22;1948;53.250;10.412;2024-03-08T08:54:43;17.60;96.00
3866;DHT22;1948;53.250;10.412;2024-03-08T08:57:16;17.50;95.30
3866;DHT22;1948;53.250;10.412;2024-03-08T08:59:43;17.00;94.60
3866;DHT22;1948;53.250;10.412;2024-03-08T09:02:13;17.60;95.00
3866;DHT22;1948;53.250;10.412;2024-03-08T09:04:44;17.90;93.90
3866;DHT22;1948;53.250;10.412;2024-03-08T09:07:14;18.10;93.60
3866;DHT22;1948;53.250;10.412;2024-03-08T09:09:42;18.30;93.20
3866;DHT22;1948;53.250;10.412;2024-03-08T09:12:11;17.80;92.00
3866;DHT22;1948;53.250;10.412;2024-03-08T09:14:42;17.80;92.20
3866;DHT22;1948;53.250;10.412;2024-03-08T09:17:10;17.70;92.40
3866;DHT22;1948;53.250;10.412;2024-03-08T09:19:39;17.80;91.90
3866;DHT22;1948;53.250;10.412;2024-03-08T09:22:06;18.10;91.60
3866;DHT22;1948;53.250;10.412;2024-03-08T09:24:37;18.50;91.50
3866;DHT22;1948;53.250;10.412;2024-03-08T09:27:09;19.40;90.90
3866;DHT22;1948;53.250;10.412;2024-03-08T09:29:36;19.80;89.00
3866;DHT22;1948;53.250;10.412;2024-03-08T09:32:06;19.70;87.40
3866;DHT22;1948;53.250;10.412;2024-03-08T09:34:34;19.80;87.00
3866;DHT22;1948;53.250;10.412;2024-03-08T09:37:04;19.40;85.20
3866;DHT22;1948;53.250;10.412;2024-03-08T09:39:34;19.80;85.10
3866;DHT22;1948;53.250;10.412;2024-03-08T09:42:04;19.70;82.80
3866;DHT22;1948;53.250;10.412;2024-03-08T09:44:37;19.30;83.30
3866;DHT22;1948;53.250;10.412;2024-03-08T09:47:05;19.50;83.20
3866;DHT22;1948;53.250;10.412;2024-03-08T09:49:33;20.30;82.50
3866;DHT22;1948;53.250;10.412;2024-03-08T09:52:04;20.80;80.70
3866;DHT22;1948;53.250;10.412;2024-03-08T09:54:31;21.00;79.40
3866;DHT22;1948;53.250;10.412;2024-03-08T09:56:58;21.00;77.40
3866;DHT22;1948;53.250;10.412;2024-03-08T09:59:28;20.70;78.50
3866;DHT22;1948;53.250;10.412;2024-03-08T10:01:57;20.80;77.10
3866;DHT22;1948;53.250;10.412;2024-03-08T10:04:31;20.80;76.60
3866;DHT22;1948;53.250;10.412;2024-03-08T10:07:02;20.30;75.30
3866;DHT22;1948;53.250;10.412;2024-03-08T10:09:35;20.00;77.00
3866;DHT22;1948;53.250;10.412;2024-03-08T10:12:05;20.50;75.40
3866;DHT22;1948;53.250;10.412;2024-03-08T10:14:32;20.90;75.30
3866;DHT22;1948;53.250;10.412;2024-03-08T10:17:02;20.90;73.30
3866;DHT22;1948;53.250;10.412;2024-03-08T10:19:30;21.00;73.50
3866;DHT22;1948;53.250;10.412;2024-03-08T10:22:01;21.00;73.50
3866;DHT22;1948;53.250;10.412;2024-03-08T10:24:28;20.20;72.90
3866;DHT22;1948;53.250;10.412;2024-03-08T10:27:04;20.60;73.90
3866;DHT22;1948;53.250;10.412;2024-03-08T10:29:36;21.20;74.20
3866;DHT22;1948;53.250;10.412;2024-03-08T10:32:04;22.40;73.70
3866;DHT22;1948;53.250;10.412;2024-03-08T10:34:34;22.80;71.20
3866;DHT22;1948;53.250;10.412;2024-03-08T10:37:12;22.50;68.90
3866;DHT22;1948;53.250;10.412;2024-03-08T10:39:57;22.50;68.60
3866;DHT22;1948;53.250;10.412;2024-03-08T10:42:44;22.30;68.40
3866;DHT22;1948;53.250;10.412;2024-03-08T10:45:37;22.60;67.50
3866;DHT22;1948;53.250;10.412;2024-03-08T10:50:50;22.90;64.50
3866;DHT22;1948;53.250;10.412;2024-03-08T10:53:19;23.10;65.80
3866;DHT22;1948;53.250;10.412;2024-03-08T10:55:53;23.70;65.40
3866;DHT22;1948;53.250;10.412;2024-03-08T10:58:25;24.30;63.70
3866;DHT22;1948;53.250;10.412;2024-03-08T11:00:58;24.00;60.80
3866;DHT22;1948;53.250;10.412;2024-03-08T11:06:17;23.80;61.40
3866;DHT22;1948;53.250;10.412;2024-03-08T11:08:49;23.70;59.60
3866;DHT22;1948;53.250;10.412;2024-03-08T11:11:30;23.30;59.20
3866;DHT22;1948;53.250;10.412;2024-03-08T11:14:04;23.60;59.50
3866;DHT22;1948;53.250;10.412;2024-03-08T11:19:01;23.60;58.10
3866;DHT22;1948;53.250;10.412;2024-03-08T11:21:37;23.70;58.10
3866;DHT22;1948;53.250;10.412;2024-03-08T11:24:11;22.30;57.60
3866;DHT22;1948;53.250;10.412;2024-03-08T11:26:40;21.80;58.80
3866;DHT22;1948;53.250;10.412;2024-03-08T11:34:45;21.50;59.20
3866;DHT22;1948;53.250;10.412;2024-03-08T11:37:17;21.00;60.10
3866;DHT22;1948;53.250;10.412;2024-03-08T11:39:50;22.00;60.00
3866;DHT22;1948;53.250;10.412;2024-03-08T11:42:27;20.90;59.70
3866;DHT22;1948;53.250;10.412;2024-03-08T11:44:54;20.70;59.60
3866;DHT22;1948;53.250;10.412;2024-03-08T11:47:21;20.80;60.40
3866;DHT22;1948;53.250;10.412;2024-03-08T11:49:53;21.60;60.50
3866;DHT22;1948;53.250;10.412;2024-03-08T11:52:20;22.00;59.50
3866;DHT22;1948;53.250;10.412;2024-03-08T11:54:56;22.20;59.50
3866;DHT22;1948;53.250;10.412;2024-03-08T11:57:27;21.90;58.90
3866;DHT22;1948;53.250;10.412;2024-03-08T11:59:56;22.10;59.20
3866;DHT22;1948;53.250;10.412;2024-03-08T12:02:26;22.50;59.30
3866;DHT22;1948;53.250;10.412;2024-03-08T12:04:58;23.10;58.80
3866;DHT22;1948;53.250;10.412;2024-03-08T12:07:30;23.10;58.30
3866;DHT22;1948;53.250;10.412;2024-03-08T12:12:48;23.50;58.30
3866;DHT22;1948;53.250;10.412;2024-03-08T12:15:23;23.90;57.70
3866;DHT22;1948;53.250;10.412;2024-03-08T12:17:52;24.20;56.90
3866;DHT22;1948;53.250;10.412;2024-03-08T12:20:24;24.20;57.40
3866;DHT22;1948;53.250;10.412;2024-03-08T12:22:53;24.80;57.30
3866;DHT22;1948;53.250;10.412;2024-03-08T12:25:31;24.70;56.40
3866;DHT22;1948;53.250;10.412;2024-03-08T12:28:12;24.70;55.50
3866;DHT22;1948;53.250;10.412;2024-03-08T12:30:51;24.80;55.30
3866;DHT22;1948;53.250;10.412;2024-03-08T12:33:23;24.40;55.40
3866;DHT22;1948;53.250;10.412;2024-03-08T12:35:55;23.90;55.10
3866;DHT22;1948;53.250;10.412;2024-03-08T12:38:23;23.50;54.70
3866;DHT22;1948;53.250;10.412;2024-03-08T12:41:00;24.20;55.60
3866;DHT22;1948;53.250;10.412;2024-03-08T12:43:29;25.10;55.20
3866;DHT22;1948;53.250;10.412;2024-03-08T12:45:58;25.80;54.60
3866;DHT22;1948;53.250;10.412;2024-03-08T12:48:25;26.60;53.50
3866;DHT22;1948;53.250;10.412;2024-03-08T12:50:55;26.50;53.30
3866;DHT22;1948;53.250;10.412;2024-03-08T12:53:25;26.00;52.30
3866;DHT22;1948;53.250;10.412;2024-03-08T12:55:55;25.80;52.20
3866;DHT22;1948;53.250;10.412;2024-03-08T12:58:23;25.00;52.10
3866;DHT22;1948;53.250;10.412;2024-03-08T13:00:53;25.20;52.50
3866;DHT22;1948;53.250;10.412;2024-03-08T13:03:20;25.30;52.30
3866;DHT22;1948;53.250;10.412;2024-03-08T13:05:49;24.50;52.20
3866;DHT22;1948;53.250;10.412;2024-03-08T13:08:21;24.70;52.60
3866;DHT22;1948;53.250;10.412;2024-03-08T13:10:51;24.30;52.10
3866;DHT22;1948;53.250;10.412;2024-03-08T13:13:18;23.70;51.80
3866;DHT22;1948;53.250;10.412;2024-03-08T13:15:47;22.80;51.90
3866;DHT22;1948;53.250;10.412;2024-03-08T13:18:15;23.00;52.90
3866;DHT22;1948;53.250;10.412;2024-03-08T13:20:45;23.60;52.90
3866;DHT22;1948;53.250;10.412;2024-03-08T13:23:16;23.50;52.60
3866;DHT22;1948;53.250;10.412;2024-03-08T13:25:44;23.30;52.20
3866;DHT22;1948;53.250;10.412;2024-03-08T13:28:14;23.70;52.20
3866;DHT22;1948;53.250;10.412;2024-03-08T13:30:42;23.60;51.80
3866;DHT22;1948;53.250;10.412;2024-03-08T13:33:10;22.60;52.00
3866;DHT22;1948;53.250;10.412;2024-03-08T13:35:38;22.80;52.30
3866;DHT22;1948;53.250;10.412;2024-03-08T13:38:07;22.60;52.20
3866;DHT22;1948;53.250;10.412;2024-03-08T13:40:39;22.50;52.40
3866;DHT22;1948;53.250;10.412;2024-03-08T13:43:06;22.40;52.20
3866;DHT22;1948;53.250;10.412;2024-03-08T13:45:36;22.50;52.30
3866;DHT22;1948;53.250;10.412;2024-03-08T13:48:05;22.40;51.90
3866;DHT22;1948;53.250;10.412;2024-03-08T13:50:32;22.30;51.70
3866;DHT22;1948;53.250;10.412;2024-03-08T13:53:03;22.40;51.90
3866;DHT22;1948;53.250;10.412;2024-03-08T13:55:32;21.60;51.50
3866;DHT22;1948;53.250;10.412;2024-03-08T13:58:00;21.10;52.00
3866;DHT22;1948;53.250;10.412;2024-03-08T14:00:27;20.80;51.50
3866;DHT22;1948;53.250;10.412;2024-03-08T14:03:02;21.10;52.10
3866;DHT22;1948;53.250;10.412;2024-03-08T14:05:32;21.70;52.00
3866;DHT22;1948;53.250;10.412;2024-03-08T14:08:02;21.60;52.00
3866;DHT22;1948;53.250;10.412;2024-03-08T14:10:35;21.70;51.80
3866;DHT22;1948;53.250;10.412;2024-03-08T14:13:04;21.70;52.00
3866;DHT22;1948;53.250;10.412;2024-03-08T14:15:34;21.60;51.50
3866;DHT22;1948;53.250;10.412;2024-03-08T14:18:08;20.70;51.50
3866;DHT22;1948;53.250;10.412;2024-03-08T14:20:35;19.70;51.80
3866;DHT22;1948;53.250;10.412;2024-03-08T14:23:04;19.00;52.30
3866;DHT22;1948;53.250;10.412;2024-03-08T14:25:34;19.30;53.00
3866;DHT22;1948;53.250;10.412;2024-03-08T14:28:02;18.70;52.40
3866;DHT22;1948;53.250;10.412;2024-03-08T14:30:36;19.00;52.90
3866;DHT22;1948;53.250;10.412;2024-03-08T14:33:05;18.90;52.70
3866;DHT22;1948;53.250;10.412;2024-03-08T14:35:32;19.20;53.30
3866;DHT22;1948;53.250;10.412;2024-03-08T14:38:02;19.40;52.80
3866;DHT22;1948;53.250;10.412;2024-03-08T14:40:30;19.20;53.10
3866;DHT22;1948;53.250;10.412;2024-03-08T14:42:57;19.50;53.30
3866;DHT22;1948;53.250;10.412;2024-03-08T14:45:31;19.90;53.20
3866;DHT22;1948;53.250;10.412;2024-03-08T14:48:01;19.60;52.20
3866;DHT22;1948;53.250;10.412;2024-03-08T14:50:33;19.40;52.90
3866;DHT22;1948;53.250;10.412;2024-03-08T14:53:03;18.60;52.50
3866;DHT22;1948;53.250;10.412;2024-03-08T14:55:33;17.80;53.30
3866;DHT22;1948;53.250;10.412;2024-03-08T14:58:01;17.50;53.60
3866;DHT22;1948;53.250;10.412;2024-03-08T15:00:33;17.40;53.90
3866;DHT22;1948;53.250;10.412;2024-03-08T15:03:01;16.80;54.20
3866;DHT22;1948;53.250;10.412;2024-03-08T15:05:33;17.00;54.90
3866;DHT22;1948;53.250;10.412;2024-03-08T15:08:05;16.80;55.20
3866;DHT22;1948;53.250;10.412;2024-03-08T15:10:38;16.80;55.50
3866;DHT22;1948;53.250;10.412;2024-03-08T15:13:08;16.50;55.80
3866;DHT22;1948;53.250;10.412;2024-03-08T15:15:44;16.20;56.10
3866;DHT22;1948;53.250;10.412;2024-03-08T15:18:16;16.00;56.70
3866;DHT22;1948;53.250;10.412;2024-03-08T15:20:45;15.90;57.10
3866;DHT22;1948;53.250;10.412;2024-03-08T15:23:17;16.00;57.70
3866;DHT22;1948;53.250;10.412;2024-03-08T15:25:44;16.10;57.60
3866;DHT22;1948;53.250;10.412;2024-03-08T15:28:16;16.00;58.00
3866;DHT22;1948;53.250;10.412;2024-03-08T15:30:47;16.30;58.20
3866;DHT22;1948;53.250;10.412;2024-03-08T15:33:20;16.30;57.90
3866;DHT22;1948;53.250;10.412;2024-03-08T15:35:52;16.00;57.90
3866;DHT22;1948;53.250;10.412;2024-03-08T15:38:27;15.90;58.40
3866;DHT22;1948;53.250;10.412;2024-03-08T15:40:59;15.50;58.50
3866;DHT22;1948;53.250;10.412;2024-03-08T15:43:26;15.00;59.10
3866;DHT22;1948;53.250;10.412;2024-03-08T15:45:58;15.10;59.50
3866;DHT22;1948;53.250;10.412;2024-03-08T15:48:25;14.90;59.50
3866;DHT22;1948;53.250;10.412;2024-03-08T15:50:55;14.30;60.20
3866;DHT22;1948;53.250;10.412;2024-03-08T15:53:22;13.60;61.30
3866;DHT22;1948;53.250;10.412;2024-03-08T15:55:53;13.20;62.50
3866;DHT22;1948;53.250;10.412;2024-03-08T15:58:20;12.50;64.10
3866;DHT22;1948;53.250;10.412;2024-03-08T16:00:48;12.10;65.20
3866;DHT22;1948;53.250;10.412;2024-03-08T16:03:15;11.70;66.90
3866;DHT22;1948;53.250;10.412;2024-03-08T16:05:43;11.30;67.80
3866;DHT22;1948;53.250;10.412;2024-03-08T16:08:13;11.20;69.30
3866;DHT22;1948;53.250;10.412;2024-03-08T16:13:24;11.00;72.50
3866;DHT22;1948;53.250;10.412;2024-03-08T16:15:54;10.80;74.10
3866;DHT22;1948;53.250;10.412;2024-03-08T16:18:22;10.90;75.30
3866;DHT22;1948;53.250;10.412;2024-03-08T16:20:55;10.90;75.90
3866;DHT22;1948;53.250;10.412;2024-03-08T16:23:24;10.80;77.00
3866;DHT22;1948;53.250;10.412;2024-03-08T16:25:54;10.60;77.90